GAP2823 RPLL-RPMD
Flight info
| Callsign | GAP2823 |
|---|---|
| Flight time | N/A |
| Altitude | 35000 |
| Route | IPATA2R IPATA B462 MASBA W9A BN W9 RIMAR RIMAR2R |
| Aircraft | A321/M-SDE3FGHIRWY/LB1 |
Departure
| Time | N/A |
|---|---|
| Airport | Ninoy Aquino International Airport (RPLL) |
Arrival
| Time | 2026-05-07 14:00 |
|---|---|
| Airport | Francisco Bangoy International Airport (RPMD) |
| Time | Latitude | Longitude | Altitude | Speed | Heading |
|---|---|---|---|---|---|
| 2026-05-07 13:51 | 7.51398 | 125.67868 | 7582 ft | 284 kts | 165° |
| 2026-05-07 13:52 | 7.49472 | 125.68298 | 7213 ft | 284 kts | 165° |
| 2026-05-07 13:52 | 7.47542 | 125.68730 | 6836 ft | 284 kts | 166° |
| 2026-05-07 13:52 | 7.46915 | 125.68871 | 6719 ft | 284 kts | 166° |
| 2026-05-07 13:52 | 7.45547 | 125.69176 | 6450 ft | 285 kts | 166° |
| 2026-05-07 13:53 | 7.43621 | 125.69604 | 6106 ft | 281 kts | 166° |
| 2026-05-07 13:53 | 7.41726 | 125.70024 | 5691 ft | 277 kts | 166° |
| 2026-05-07 13:53 | 7.39849 | 125.70440 | 5320 ft | 275 kts | 166° |
| 2026-05-07 13:53 | 7.37985 | 125.70858 | 4961 ft | 275 kts | 166° |
| 2026-05-07 13:54 | 7.36126 | 125.71276 | 4595 ft | 273 kts | 167° |
| 2026-05-07 13:54 | 7.34280 | 125.71700 | 4216 ft | 271 kts | 163° |
| 2026-05-07 13:54 | 7.32581 | 125.72444 | 3889 ft | 269 kts | 146° |
| 2026-05-07 13:54 | 7.31128 | 125.73610 | 3699 ft | 267 kts | 138° |
| 2026-05-07 13:55 | 7.29735 | 125.74819 | 3486 ft | 261 kts | 139° |
| 2026-05-07 13:55 | 7.28371 | 125.75995 | 3284 ft | 255 kts | 139° |
| 2026-05-07 13:55 | 7.27045 | 125.77140 | 3077 ft | 246 kts | 139° |
| 2026-05-07 13:55 | 7.25628 | 125.77973 | 2881 ft | 231 kts | 168° |
| 2026-05-07 13:56 | 7.24113 | 125.77788 | 2710 ft | 216 kts | 207° |
| 2026-05-07 13:56 | 7.23071 | 125.76806 | 2547 ft | 199 kts | 232° |
| 2026-05-07 13:56 | 7.22221 | 125.75768 | 2376 ft | 185 kts | 229° |
| 2026-05-07 13:56 | 7.21417 | 125.74834 | 2243 ft | 169 kts | 229° |
| 2026-05-07 13:57 | 7.20680 | 125.73982 | 2098 ft | 157 kts | 229° |
| 2026-05-07 13:57 | 7.19973 | 125.73165 | 1976 ft | 153 kts | 229° |
| 2026-05-07 13:57 | 7.19277 | 125.72360 | 1839 ft | 152 kts | 229° |
| 2026-05-07 13:57 | 7.18585 | 125.71562 | 1637 ft | 151 kts | 230° |
| 2026-05-07 13:58 | 7.17897 | 125.70766 | 1423 ft | 150 kts | 230° |
| 2026-05-07 13:58 | 7.17211 | 125.69972 | 1226 ft | 150 kts | 230° |
| 2026-05-07 13:58 | 7.16756 | 125.69445 | 1094 ft | 150 kts | 230° |
| 2026-05-07 13:58 | 7.15843 | 125.68390 | 852 ft | 148 kts | 229° |
| 2026-05-07 13:59 | 7.15184 | 125.67601 | 666 ft | 147 kts | 228° |
| 2026-05-07 13:59 | 7.14512 | 125.66839 | 488 ft | 146 kts | 226° |
| 2026-05-07 13:59 | 7.13852 | 125.66071 | 276 ft | 144 kts | 226° |
| 2026-05-07 13:59 | 7.13191 | 125.65315 | 102 ft | 138 kts | 227° |
| 2026-05-07 14:00 | 7.12654 | 125.64707 | 100 ft | 99 kts | 227° |
| 2026-05-07 14:00 | 7.12282 | 125.64260 | 101 ft | 61 kts | 230° |
| 2026-05-07 14:00 | 7.12125 | 125.64078 | 102 ft | 46 kts | 229° |
| 2026-05-07 14:00 | 7.11885 | 125.63799 | 102 ft | 36 kts | 228° |
| 2026-05-07 14:01 | 7.11783 | 125.63680 | 100 ft | 27 kts | 229° |
| 2026-05-07 14:01 | 7.11748 | 125.63562 | 100 ft | 13 kts | 251° |
| 2026-05-07 14:01 | 7.11707 | 125.63592 | 101 ft | 12 kts | 56° |
| 2026-05-07 14:01 | 7.11768 | 125.63665 | 102 ft | 15 kts | 50° |
| 2026-05-07 14:02 | 7.11791 | 125.63692 | 100 ft | 15 kts | 50° |
| 2026-05-07 14:02 | 7.11836 | 125.63745 | 101 ft | 17 kts | 49° |
| 2026-05-07 14:02 | 7.12050 | 125.63994 | 102 ft | 26 kts | 49° |
| 2026-05-07 14:03 | 7.12178 | 125.64141 | 102 ft | 31 kts | 49° |
| 2026-05-07 14:03 | 7.12412 | 125.64414 | 100 ft | 31 kts | 49° |
| 2026-05-07 14:03 | 7.12615 | 125.64515 | 101 ft | 15 kts | 320° |
| 2026-05-07 14:04 | 7.12702 | 125.64449 | 101 ft | 13 kts | 339° |
| 2026-05-07 14:04 | 7.12770 | 125.64484 | 100 ft | 12 kts | 48° |
| 2026-05-07 14:04 | 7.12830 | 125.64554 | 101 ft | 14 kts | 50° |
| 2026-05-07 14:04 | 7.12900 | 125.64589 | 100 ft | 12 kts | 335° |
| 2026-05-07 14:05 | 7.12939 | 125.64556 | 101 ft | 4 kts | 318° |